Time;durP1;ratioP1;P1;durP2;ratioP2;P2;SDS_P1;SDS_P2;PMS_P1;PMS_P2;Temp;Humidity;BMP_temperature;BMP_pressure;BME280_temperature;BME280_humidity;BME280_pressure;Samples;Min_cycle;Max_cycle;Signal;HPM_P1;HPM_P2
2023/01/01 00:02:00;;;;;;;19.13;12.82;;;13.70;99.90;;;;;;5072757;28;20403;-50
2023/01/01 00:04:26;;;;;;;28.13;16.70;;;13.70;99.90;;;;;;5073409;28;20028;-52
2023/01/01 00:06:52;;;;;;;27.35;17.23;;;13.70;99.90;;;;;;5073401;28;20020;-53
2023/01/01 00:12:01;;;;;;;31.77;21.67;;;13.70;99.90;;;;;;5071629;28;20052;-49
2023/01/01 00:14:27;;;;;;;26.35;19.33;;;13.60;99.90;;;;;;5073235;28;20025;-49
2023/01/01 00:16:55;;;;;;;25.98;17.55;;;13.60;99.90;;;;;;5072792;28;20035;-48
2023/01/01 00:19:21;;;;;;;25.35;17.08;;;13.60;99.90;;;;;;5073347;28;20024;-53
2023/01/01 00:21:47;;;;;;;24.20;16.60;;;13.50;99.90;;;;;;5071847;28;20017;-49
2023/01/01 00:24:12;;;;;;;27.65;18.10;;;13.50;99.90;;;;;;5053625;28;20029;-49
2023/01/01 00:26:38;;;;;;;24.13;15.75;;;13.40;99.90;;;;;;5054212;28;20032;-54
2023/01/01 00:29:04;;;;;;;31.05;17.88;;;13.40;99.90;;;;;;5053232;28;20060;-50
2023/01/01 00:31:30;;;;;;;31.15;18.33;;;13.30;99.90;;;;;;5052931;28;20485;-53
2023/01/01 00:33:56;;;;;;;26.02;17.15;;;13.20;99.90;;;;;;5052832;28;20032;-49
2023/01/01 00:36:24;;;;;;;23.42;15.75;;;13.10;99.90;;;;;;5058579;28;20025;-49
2023/01/01 00:38:49;;;;;;;24.23;15.52;;;13.10;99.90;;;;;;5072674;28;20035;-50
2023/01/01 00:41:15;;;;;;;23.02;16.15;;;13.10;99.90;;;;;;5072971;28;20443;-49
2023/01/01 00:43:41;;;;;;;25.70;17.50;;;13.00;99.90;;;;;;5072526;28;20021;-53
2023/01/01 00:46:08;;;;;;;27.98;20.23;;;13.00;99.90;;;;;;5072980;28;20029;-51
2023/01/01 00:48:34;;;;;;;29.30;19.30;;;12.90;99.90;;;;;;5055648;28;20025;-51
2023/01/01 00:51:00;;;;;;;27.77;19.33;;;12.90;99.90;;;;;;5073251;28;20073;-53
2023/01/01 00:53:25;;;;;;;28.60;17.98;;;12.90;99.90;;;;;;5064187;28;20033;-51
2023/01/01 00:55:51;;;;;;;30.33;19.23;;;12.90;99.90;;;;;;5034438;28;20174;-54
2023/01/01 00:58:18;;;;;;;28.63;17.80;;;12.80;99.90;;;;;;5034978;28;20025;-51
2023/01/01 01:00:44;;;;;;;28.98;19.67;;;12.90;99.90;;;;;;5053345;28;20392;-51
2023/01/01 01:03:26;;;;;;;26.33;18.27;;;12.90;99.90;;;;;;5054903;28;20051;-50
2023/01/01 01:06:13;;;;;;;26.60;17.75;;;12.90;99.90;;;;;;5052178;28;20029;-54
2023/01/01 01:08:41;;;;;;;30.13;20.00;;;12.90;99.90;;;;;;5052106;28;20117;-46
2023/01/01 01:11:11;;;;;;;37.17;23.70;;;12.80;99.90;;;;;;5052444;28;20452;-51
2023/01/01 01:13:36;;;;;;;36.75;22.38;;;12.80;99.90;;;;;;5046192;28;20033;-48
2023/01/01 01:16:37;;;;;;;34.20;23.55;;;12.80;99.90;;;;;;5048921;28;20112;-53
2023/01/01 01:19:04;;;;;;;37.17;25.20;;;12.80;99.90;;;;;;5035830;28;20091;-51
2023/01/01 01:21:31;;;;;;;39.53;26.80;;;12.70;99.90;;;;;;5050143;28;20035;-52
2023/01/01 01:23:58;;;;;;;41.10;26.83;;;12.70;99.90;;;;;;5046546;28;20021;-51
2023/01/01 01:26:26;;;;;;;41.25;28.77;;;12.70;99.90;;;;;;5047862;28;20029;-52
2023/01/01 01:28:53;;;;;;;52.42;32.38;;;12.70;99.90;;;;;;5048909;28;20020;-50
2023/01/01 01:31:21;;;;;;;54.22;33.80;;;12.70;99.90;;;;;;5049430;28;20040;-51
2023/01/01 01:33:47;;;;;;;49.10;33.40;;;12.60;99.90;;;;;;5052468;28;20049;-54
2023/01/01 01:36:14;;;;;;;49.58;34.03;;;12.70;99.90;;;;;;5049211;28;20108;-51
2023/01/01 01:38:40;;;;;;;51.85;34.85;;;12.70;99.90;;;;;;5049648;28;20024;-52
2023/01/01 01:41:06;;;;;;;51.53;35.70;;;12.60;99.90;;;;;;5050170;28;20092;-53
2023/01/01 01:43:31;;;;;;;49.72;33.67;;;12.60;99.90;;;;;;5048981;28;20029;-51
2023/01/01 01:46:02;;;;;;;45.65;34.13;;;12.60;99.90;;;;;;5049522;28;20512;-50
2023/01/01 01:48:30;;;;;;;50.10;33.85;;;12.70;99.90;;;;;;5047859;28;20392;-53
2023/01/01 01:50:56;;;;;;;49.35;31.95;;;12.60;99.90;;;;;;5050052;28;20452;-51
2023/01/01 01:53:27;;;;;;;43.88;30.50;;;12.60;99.90;;;;;;5050612;28;20033;-51
2023/01/01 01:56:01;;;;;;;46.63;30.95;;;12.60;99.90;;;;;;5051474;28;20512;-51
2023/01/01 01:58:29;;;;;;;41.42;27.90;;;12.60;99.90;;;;;;5051511;28;20108;-52
2023/01/01 02:00:55;;;;;;;39.55;28.58;;;12.60;99.90;;;;;;5051336;28;20056;-52
2023/01/01 02:03:25;;;;;;;39.80;28.65;;;12.60;99.90;;;;;;5050564;28;20508;-50
2023/01/01 02:05:51;;;;;;;41.22;26.20;;;12.60;99.90;;;;;;5051113;28;20180;-45
2023/01/01 02:08:19;;;;;;;38.85;27.75;;;12.60;99.90;;;;;;5033553;28;20036;-53
2023/01/01 02:10:44;;;;;;;44.78;31.58;;;12.60;99.90;;;;;;5051575;28;20059;-53
2023/01/01 02:13:10;;;;;;;52.97;36.78;;;12.60;99.90;;;;;;5050451;28;20056;-51
2023/01/01 02:15:46;;;;;;;53.30;37.25;;;12.60;99.90;;;;;;5051307;28;20172;-54
2023/01/01 02:18:15;;;;;;;56.95;35.40;;;12.50;99.90;;;;;;5051492;28;20032;-50
2023/01/01 02:21:02;;;;;;;53.83;35.65;;;12.50;99.90;;;;;;5051545;28;20036;-50
2023/01/01 02:23:59;;;;;;;53.88;35.17;;;12.50;99.90;;;;;;5050525;28;20029;-50
2023/01/01 02:26:46;;;;;;;45.92;33.95;;;12.60;99.90;;;;;;5051210;28;20393;-52
2023/01/01 02:29:45;;;;;;;50.75;35.20;;;12.60;99.90;;;;;;5033112;28;20029;-52
2023/01/01 02:32:28;;;;;;;45.28;32.80;;;12.50;99.90;;;;;;5050607;28;20029;-54
2023/01/01 02:35:33;;;;;;;50.00;33.53;;;12.50;99.90;;;;;;5053015;28;20024;-51
2023/01/01 02:37:49;;;;;;;50.15;34.55;;;12.40;99.90;;;;;;5054950;28;20025;-50
2023/01/01 02:40:17;;;;;;;38.13;27.45;;;12.40;99.90;;;;;;5055024;28;20025;-51
2023/01/01 02:42:43;;;;;;;40.80;27.40;;;12.30;99.90;;;;;;5054397;28;20076;-53
2023/01/01 02:45:10;;;;;;;38.58;25.65;;;12.30;99.90;;;;;;5054843;28;20025;-53
2023/01/01 02:47:37;;;;;;;32.97;22.25;;;12.30;99.90;;;;;;5055302;28;20025;-50
2023/01/01 02:50:20;;;;;;;32.17;20.95;;;12.30;99.90;;;;;;5053784;28;20039;-49
2023/01/01 02:53:13;;;;;;;27.35;21.00;;;12.30;99.90;;;;;;5054067;28;20028;-49
2023/01/01 02:56:00;;;;;;;27.60;18.55;;;12.20;99.90;;;;;;5054670;28;20025;-49
2023/01/01 03:01:47;;;;;;;31.67;20.85;;;12.20;99.90;;;;;;5055049;28;20100;-49
2023/01/01 03:04:24;;;;;;;29.95;19.13;;;12.10;99.90;;;;;;5036569;28;20102;-49
2023/01/01 03:07:25;;;;;;;30.98;20.42;;;12.00;99.90;;;;;;5054484;28;20108;-49
2023/01/01 03:10:14;;;;;;;25.92;18.90;;;11.90;99.90;;;;;;5040824;28;20037;-49
2023/01/01 03:13:00;;;;;;;29.38;18.42;;;11.90;99.90;;;;;;5054775;28;20438;-49
2023/01/01 03:15:37;;;;;;;23.50;17.40;;;11.90;99.90;;;;;;5054448;28;20061;-52
2023/01/01 03:18:34;;;;;;;24.50;17.15;;;11.80;99.90;;;;;;5054402;28;20476;-49
2023/01/01 03:21:02;;;;;;;28.83;19.35;;;11.80;99.90;;;;;;5054603;28;20164;-49
2023/01/01 03:23:34;;;;;;;29.35;19.70;;;11.70;99.90;;;;;;5053592;28;20389;-49
2023/01/01 03:26:07;;;;;;;30.45;21.85;;;11.70;99.90;;;;;;5054156;28;20032;-50
2023/01/01 03:28:38;;;;;;;29.65;19.67;;;11.70;99.90;;;;;;5054299;28;20025;-52
2023/01/01 03:31:05;;;;;;;27.33;20.67;;;11.80;99.90;;;;;;5054410;28;20112;-50
2023/01/01 03:33:37;;;;;;;33.22;22.10;;;11.70;99.90;;;;;;5053599;28;20029;-50
2023/01/01 03:36:09;;;;;;;29.90;20.30;;;11.70;99.90;;;;;;5036370;28;20021;-50
2023/01/01 03:38:40;;;;;;;28.52;20.95;;;11.70;99.90;;;;;;5054237;28;20055;-52
2023/01/01 03:41:14;;;;;;;21.75;16.38;;;11.70;99.90;;;;;;5054332;28;20108;-49
2023/01/01 03:43:55;;;;;;;18.80;12.10;;;11.70;99.90;;;;;;5053302;28;20482;-54
2023/01/01 03:46:25;;;;;;;20.85;12.75;;;11.70;99.90;;;;;;5086225;22;20079;-50
2023/01/01 03:48:55;;;;;;;23.50;14.65;;;11.80;99.90;;;;;;5092963;28;20046;-50
2023/01/01 03:51:26;;;;;;;24.02;15.88;;;11.80;99.90;;;;;;5093768;28;20021;-51
2023/01/01 03:53:57;;;;;;;21.27;14.93;;;11.80;99.90;;;;;;5093067;28;20024;-50
2023/01/01 03:56:48;;;;;;;22.00;16.27;;;11.80;99.90;;;;;;5075317;28;20016;-51
2023/01/01 03:59:26;;;;;;;19.80;15.63;;;11.90;99.90;;;;;;5094029;28;20095;-50
2023/01/01 04:01:57;;;;;;;23.75;17.10;;;11.90;99.90;;;;;;5093179;28;20088;-46
2023/01/01 04:04:25;;;;;;;23.63;15.82;;;11.90;99.90;;;;;;5075613;28;20089;-51
2023/01/01 04:06:51;;;;;;;24.95;15.88;;;11.80;99.90;;;;;;5093304;28;20031;-49
2023/01/01 04:09:23;;;;;;;25.77;17.02;;;11.70;99.90;;;;;;5075556;28;20044;-50
2023/01/01 04:12:02;;;;;;;23.42;15.90;;;11.70;99.90;;;;;;5074923;28;20047;-50
2023/01/01 04:14:31;;;;;;;19.73;14.77;;;11.60;99.90;;;;;;5093642;28;20024;-52
2023/01/01 04:16:56;;;;;;;23.98;15.30;;;11.60;99.90;;;;;;5075160;28;20480;-48
2023/01/01 04:19:22;;;;;;;16.02;10.88;;;11.60;99.90;;;;;;5075153;28;20024;-50
2023/01/01 04:21:48;;;;;;;14.05;9.88;;;11.60;99.90;;;;;;5093211;28;20073;-51
2023/01/01 04:24:13;;;;;;;28.17;18.83;;;11.60;99.90;;;;;;5093573;28;20111;-50
2023/01/01 04:26:40;;;;;;;20.80;14.80;;;11.50;99.90;;;;;;5075251;28;20024;-48
2023/01/01 04:29:05;;;;;;;18.70;12.48;;;11.50;99.90;;;;;;5093752;28;20047;-50
2023/01/01 04:31:32;;;;;;;21.75;14.38;;;11.40;99.90;;;;;;5093671;28;20294;-51
2023/01/01 04:33:58;;;;;;;19.40;12.68;;;11.40;99.90;;;;;;5074530;28;20420;-48
2023/01/01 04:36:23;;;;;;;19.13;13.82;;;11.40;99.90;;;;;;5092845;28;20527;-49
2023/01/01 04:38:49;;;;;;;26.85;20.55;;;11.30;99.90;;;;;;5074891;28;20491;-47
2023/01/01 04:41:14;;;;;;;30.30;21.55;;;11.30;99.90;;;;;;5074666;28;20142;-50
2023/01/01 04:43:40;;;;;;;30.10;20.92;;;11.20;99.90;;;;;;5092248;28;20032;-48
2023/01/01 04:46:05;;;;;;;37.40;23.60;;;11.20;99.90;;;;;;5092846;28;20130;-47
2023/01/01 04:48:33;;;;;;;26.67;19.02;;;11.10;99.90;;;;;;5073502;28;20035;-51
2023/01/01 04:51:01;;;;;;;29.17;19.80;;;11.10;99.90;;;;;;5092863;28;20483;-49
2023/01/01 04:53:32;;;;;;;24.92;18.50;;;11.10;99.90;;;;;;5092004;28;20031;-52
2023/01/01 04:56:13;;;;;;;22.42;16.42;;;11.10;99.90;;;;;;5092314;28;20024;-48
2023/01/01 04:58:40;;;;;;;28.40;19.05;;;11.10;99.90;;;;;;5092270;28;20016;-52
2023/01/01 05:01:07;;;;;;;26.85;19.15;;;11.00;99.90;;;;;;5092733;28;20028;-49
2023/01/01 05:03:32;;;;;;;28.02;18.13;;;10.90;99.90;;;;;;5092428;28;20028;-48
2023/01/01 05:06:03;;;;;;;22.92;16.85;;;10.90;99.90;;;;;;5092577;28;20090;-49
2023/01/01 05:08:30;;;;;;;21.40;15.50;;;10.90;99.90;;;;;;5092445;28;20061;-47
2023/01/01 05:11:07;;;;;;;20.67;13.63;;;10.90;99.90;;;;;;5092435;28;20032;-51
2023/01/01 05:13:41;;;;;;;27.13;17.67;;;11.00;99.90;;;;;;5091528;28;20530;-51
2023/01/01 05:16:09;;;;;;;24.80;17.63;;;11.10;99.90;;;;;;5092549;28;20024;-49
2023/01/01 05:18:35;;;;;;;27.05;14.90;;;11.10;99.90;;;;;;5092195;28;20386;-48
2023/01/01 05:21:22;;;;;;;24.92;14.85;;;11.00;99.90;;;;;;5092316;28;20065;-49
2023/01/01 05:23:48;;;;;;;19.40;13.82;;;11.10;99.90;;;;;;5091425;28;20031;-49
2023/01/01 05:26:17;;;;;;;25.25;14.65;;;11.10;99.90;;;;;;5091997;28;20469;-52
2023/01/01 05:28:43;;;;;;;22.40;13.27;;;11.20;99.90;;;;;;5092016;28;20019;-48
2023/01/01 05:31:12;;;;;;;18.83;13.38;;;11.30;99.90;;;;;;5073791;28;20024;-46
2023/01/01 05:33:37;;;;;;;20.20;12.98;;;11.30;99.90;;;;;;5091017;28;20032;-53
2023/01/01 05:36:04;;;;;;;18.38;11.93;;;11.30;99.90;;;;;;5091800;28;20024;-49
2023/01/01 05:38:30;;;;;;;19.23;13.13;;;11.30;99.90;;;;;;5091803;28;20067;-51
2023/01/01 05:40:56;;;;;;;21.25;13.23;;;11.30;99.90;;;;;;5091871;28;20058;-52
2023/01/01 05:43:22;;;;;;;20.30;11.88;;;11.30;99.90;;;;;;5072765;28;20068;-49
2023/01/01 05:45:47;;;;;;;16.48;11.77;;;11.30;99.90;;;;;;5091681;28;20036;-48
2023/01/01 05:48:13;;;;;;;21.65;11.98;;;11.30;99.90;;;;;;5090561;28;20036;-50
2023/01/01 05:50:38;;;;;;;16.65;11.45;;;11.30;99.90;;;;;;5092047;28;20035;-50
2023/01/01 05:53:04;;;;;;;18.30;12.02;;;11.30;99.90;;;;;;5072931;28;20399;-51
2023/01/01 05:55:29;;;;;;;18.33;11.18;;;11.40;99.90;;;;;;5073466;28;20031;-47
2023/01/01 05:57:55;;;;;;;16.63;10.68;;;11.40;99.90;;;;;;5091712;28;20105;-49
2023/01/01 06:00:21;;;;;;;18.27;11.70;;;11.40;99.90;;;;;;5092193;28;20032;-52
2023/01/01 06:02:48;;;;;;;16.15;11.75;;;11.40;99.90;;;;;;5090846;28;20036;-46
2023/01/01 06:05:14;;;;;;;17.45;11.60;;;11.50;99.90;;;;;;5091721;28;20066;-48
2023/01/01 06:07:40;;;;;;;16.88;10.73;;;11.50;99.90;;;;;;5091531;28;20024;-52
2023/01/01 06:10:05;;;;;;;14.80;10.00;;;11.50;99.90;;;;;;5090615;28;20118;-49
2023/01/01 06:12:31;;;;;;;16.58;10.43;;;11.60;99.90;;;;;;5072479;28;20028;-51
2023/01/01 06:14:56;;;;;;;13.40;9.10;;;11.60;99.90;;;;;;5091456;28;20020;-48
2023/01/01 06:17:22;;;;;;;11.85;8.35;;;11.60;99.90;;;;;;5091106;28;20438;-49
2023/01/01 06:19:47;;;;;;;18.45;9.65;;;11.60;99.90;;;;;;5091535;28;20111;-51
2023/01/01 06:22:13;;;;;;;12.88;8.85;;;11.70;99.90;;;;;;5072492;28;20373;-47
2023/01/01 06:24:38;;;;;;;14.05;8.82;;;11.70;99.90;;;;;;5073292;28;20020;-47
2023/01/01 06:27:04;;;;;;;14.43;8.90;;;11.80;99.90;;;;;;5091272;28;20043;-47
2023/01/01 06:29:29;;;;;;;11.43;8.25;;;11.80;99.90;;;;;;5091393;28;20376;-52
2023/01/01 06:31:55;;;;;;;12.98;8.13;;;11.80;99.90;;;;;;5090728;28;20480;-46
2023/01/01 06:34:20;;;;;;;13.98;8.35;;;11.80;99.90;;;;;;5073084;28;20051;-49
2023/01/01 06:36:46;;;;;;;11.77;8.25;;;11.80;99.90;;;;;;5091125;28;20092;-52
2023/01/01 06:39:11;;;;;;;14.52;8.02;;;11.80;99.90;;;;;;5073105;28;20024;-48
2023/01/01 06:41:37;;;;;;;10.63;8.10;;;11.80;99.90;;;;;;5091283;28;20024;-50
2023/01/01 06:44:02;;;;;;;10.32;7.75;;;11.80;99.90;;;;;;5090383;28;20490;-50
2023/01/01 06:46:33;;;;;;;15.38;8.13;;;11.70;99.90;;;;;;5072929;28;20393;-50
2023/01/01 06:49:09;;;;;;;13.40;7.65;;;11.70;99.90;;;;;;5090079;28;20029;-52
2023/01/01 06:51:42;;;;;;;11.75;8.23;;;11.70;99.90;;;;;;5090885;28;20027;-48
2023/01/01 06:54:10;;;;;;;12.95;7.80;;;11.70;99.90;;;;;;5090290;28;20028;-51
2023/01/01 06:56:36;;;;;;;13.68;8.30;;;11.60;99.90;;;;;;5090832;28;20471;-47
2023/01/01 06:59:02;;;;;;;14.63;7.97;;;11.60;99.90;;;;;;5091193;28;20038;-48
2023/01/01 07:01:30;;;;;;;12.10;7.28;;;11.60;99.90;;;;;;5091330;28;20031;-47
2023/01/01 07:04:01;;;;;;;13.32;7.57;;;11.60;99.90;;;;;;5090399;28;20016;-49
2023/01/01 07:06:29;;;;;;;11.63;6.57;;;11.60;99.90;;;;;;5090864;28;20228;-49
2023/01/01 07:08:55;;;;;;;10.70;6.68;;;11.60;99.90;;;;;;5072845;28;20023;-48
2023/01/01 07:11:21;;;;;;;11.48;7.15;;;11.60;99.90;;;;;;5090822;28;20024;-52
2023/01/01 07:13:46;;;;;;;9.10;6.38;;;11.60;99.90;;;;;;5090043;28;20476;-49
2023/01/01 07:16:12;;;;;;;10.35;5.85;;;11.60;99.90;;;;;;5090779;28;20031;-46
2023/01/01 07:18:37;;;;;;;10.85;6.95;;;11.60;99.90;;;;;;5090888;28;20487;-49
2023/01/01 07:21:04;;;;;;;10.50;6.22;;;11.60;99.90;;;;;;5093901;28;20472;-48
2023/01/01 07:23:33;;;;;;;9.38;6.05;;;11.70;99.90;;;;;;5076468;28;20495;-47
2023/01/01 07:25:59;;;;;;;9.65;5.50;;;11.70;99.90;;;;;;5094352;28;20035;-51
2023/01/01 07:28:25;;;;;;;11.50;5.85;;;11.60;99.90;;;;;;5094765;28;20032;-51
2023/01/01 07:30:52;;;;;;;6.72;5.25;;;11.70;99.90;;;;;;5076217;28;20036;-49
2023/01/01 07:33:19;;;;;;;12.43;5.85;;;11.70;99.90;;;;;;5093569;28;20035;-50
2023/01/01 07:35:45;;;;;;;7.22;5.75;;;11.70;99.90;;;;;;5094199;28;20054;-49
2023/01/01 07:38:12;;;;;;;12.38;5.90;;;11.70;99.90;;;;;;5094321;28;20046;-49
2023/01/01 07:40:38;;;;;;;8.77;6.05;;;11.70;99.90;;;;;;5094691;28;20112;-48
2023/01/01 07:43:03;;;;;;;9.75;5.72;;;11.70;99.90;;;;;;5093387;28;20495;-50
2023/01/01 07:45:29;;;;;;;8.93;6.25;;;11.80;99.90;;;;;;5094060;28;20082;-48
2023/01/01 07:47:57;;;;;;;9.70;5.22;;;11.70;99.90;;;;;;5093956;28;20028;-51
2023/01/01 07:50:24;;;;;;;9.38;5.75;;;11.70;99.90;;;;;;5075668;28;20046;-52
2023/01/01 07:52:50;;;;;;;8.27;4.85;;;11.60;99.90;;;;;;5093279;28;20085;-51
2023/01/01 07:55:17;;;;;;;9.73;5.13;;;11.60;99.90;;;;;;5093853;28;20426;-48
2023/01/01 07:57:43;;;;;;;9.27;5.13;;;11.70;99.90;;;;;;5093952;28;20029;-48
2023/01/01 08:00:11;;;;;;;8.27;5.13;;;11.70;99.90;;;;;;5093787;28;20028;-50
2023/01/01 08:02:37;;;;;;;9.75;5.50;;;11.70;99.90;;;;;;5092916;28;20112;-52
2023/01/01 08:05:03;;;;;;;7.63;5.38;;;11.70;99.90;;;;;;5093672;28;20062;-50
2023/01/01 08:07:28;;;;;;;7.80;5.22;;;11.70;99.90;;;;;;5075510;28;20035;-52
2023/01/01 08:09:54;;;;;;;8.18;5.30;;;11.70;99.90;;;;;;5093715;28;20024;-49
2023/01/01 08:12:19;;;;;;;10.13;5.32;;;11.80;99.90;;;;;;5092933;28;20483;-49
2023/01/01 08:14:45;;;;;;;10.57;5.82;;;11.80;99.90;;;;;;5093323;28;20131;-48
2023/01/01 08:17:10;;;;;;;6.72;4.55;;;11.90;99.90;;;;;;5075096;28;20020;-52
2023/01/01 08:19:36;;;;;;;10.30;4.82;;;11.80;99.90;;;;;;5093374;28;20098;-49
2023/01/01 08:22:01;;;;;;;8.60;4.45;;;11.80;99.90;;;;;;5074531;28;20418;-51
2023/01/01 08:24:27;;;;;;;6.70;4.78;;;11.80;99.90;;;;;;5093163;28;20063;-49
2023/01/01 08:26:52;;;;;;;9.93;4.97;;;11.80;99.90;;;;;;5075064;28;20484;-52
2023/01/01 08:29:19;;;;;;;9.20;4.80;;;11.80;99.90;;;;;;5074913;28;20395;-49
2023/01/01 08:31:45;;;;;;;9.80;4.82;;;11.90;99.90;;;;;;5091888;28;20446;-45
2023/01/01 08:34:10;;;;;;;7.75;4.20;;;11.90;99.90;;;;;;5092524;28;20016;-52
2023/01/01 08:36:39;;;;;;;9.27;3.97;;;12.00;99.90;;;;;;5092950;28;20080;-47
2023/01/01 08:39:05;;;;;;;6.68;3.30;;;12.00;99.90;;;;;;5092952;28;20020;-47
2023/01/01 08:41:31;;;;;;;7.18;3.58;;;12.10;99.90;;;;;;5074900;28;20020;-48
2023/01/01 08:43:56;;;;;;;6.00;3.50;;;12.20;99.90;;;;;;5092219;28;20089;-47
2023/01/01 08:46:22;;;;;;;8.57;3.95;;;12.30;99.90;;;;;;5092478;28;20044;-48
2023/01/01 08:48:47;;;;;;;8.02;3.10;;;12.40;99.90;;;;;;5091022;28;20051;-49
2023/01/01 08:51:13;;;;;;;4.88;2.50;;;12.40;99.90;;;;;;5092976;28;20507;-47
2023/01/01 08:53:38;;;;;;;4.53;2.67;;;12.60;99.90;;;;;;5092124;28;20099;-51
2023/01/01 08:56:06;;;;;;;5.03;2.47;;;12.70;99.90;;;;;;5092713;28;20030;-49
2023/01/01 08:58:34;;;;;;;11.18;3.13;;;12.80;99.90;;;;;;5092829;28;20016;-51
2023/01/01 09:01:00;;;;;;;5.85;2.20;;;13.00;99.90;;;;;;5074606;28;20123;-53
2023/01/01 09:03:26;;;;;;;8.43;3.00;;;13.10;99.90;;;;;;5091824;28;20491;-47
2023/01/01 09:05:52;;;;;;;7.50;2.55;;;13.20;99.90;;;;;;5074420;28;20028;-52
2023/01/01 09:08:17;;;;;;;9.07;2.45;;;13.40;99.90;;;;;;5074353;28;20036;-53
2023/01/01 09:10:43;;;;;;;10.30;2.85;;;13.50;99.90;;;;;;5092508;28;20099;-48
2023/01/01 09:13:10;;;;;;;5.15;2.22;;;13.60;99.90;;;;;;5091500;28;20024;-51
2023/01/01 09:15:35;;;;;;;5.30;2.22;;;13.70;99.90;;;;;;5073943;28;20365;-50
2023/01/01 09:18:01;;;;;;;3.35;2.05;;;13.80;99.90;;;;;;5092415;28;20023;-50
2023/01/01 09:20:26;;;;;;;10.55;4.10;;;13.90;99.90;;;;;;5074096;28;20020;-51
2023/01/01 09:22:52;;;;;;;6.03;2.17;;;14.00;99.90;;;;;;5073169;28;20060;-50
2023/01/01 09:25:17;;;;;;;7.95;2.08;;;14.10;99.90;;;;;;5091902;28;20023;-49
2023/01/01 09:27:43;;;;;;;10.70;3.35;;;14.20;99.90;;;;;;5092344;28;20073;-46
2023/01/01 09:30:09;;;;;;;3.72;2.33;;;14.30;99.90;;;;;;5091861;28;20335;-51
2023/01/01 09:32:34;;;;;;;6.57;2.60;;;14.40;99.90;;;;;;5091207;28;20032;-50
2023/01/01 09:35:00;;;;;;;12.73;2.25;;;14.50;99.90;;;;;;5091867;28;20395;-47
2023/01/01 09:37:26;;;;;;;7.88;1.90;;;14.50;99.90;;;;;;5069858;28;20024;-47
2023/01/01 09:39:52;;;;;;;8.35;2.05;;;14.50;99.90;;;;;;5091272;28;20024;-46
2023/01/01 09:42:39;;;;;;;7.47;2.13;;;14.50;99.90;;;;;;5090884;28;20459;-50
2023/01/01 09:45:15;;;;;;;10.35;3.28;;;14.60;99.90;;;;;;5073492;28;20035;-49
2023/01/01 09:47:46;;;;;;;5.72;2.25;;;14.70;99.90;;;;;;5088426;28;20032;-49
2023/01/01 09:50:27;;;;;;;4.97;2.72;;;14.80;99.90;;;;;;5087861;28;20388;-50
2023/01/01 09:53:03;;;;;;;10.07;2.72;;;14.80;99.90;;;;;;5052918;28;20028;-51
2023/01/01 09:55:40;;;;;;;4.22;2.00;;;14.90;99.90;;;;;;5086771;28;20472;-46
2023/01/01 09:58:09;;;;;;;10.88;2.30;;;15.00;99.90;;;;;;5091694;28;20035;-47
2023/01/01 10:00:43;;;;;;;4.40;1.80;;;15.10;99.90;;;;;;5089766;28;20024;-47
2023/01/01 10:03:23;;;;;;;7.95;3.33;;;15.30;99.90;;;;;;5066286;28;20484;-47
2023/01/01 10:05:57;;;;;;;10.82;2.80;;;15.50;99.90;;;;;;5071521;28;20029;-47
2023/01/01 10:09:00;;;;;;;7.63;2.40;;;15.50;99.90;;;;;;5087903;28;20028;-47
2023/01/01 10:11:31;;;;;;;8.38;2.13;;;15.60;99.90;;;;;;5102872;28;20028;-48
2023/01/01 10:13:59;;;;;;;7.68;2.25;;;15.50;99.90;;;;;;5088469;28;20042;-48
2023/01/01 10:16:50;;;;;;;8.02;2.50;;;15.40;99.90;;;;;;5111713;28;20024;-47
2023/01/01 10:19:33;;;;;;;7.45;2.20;;;15.40;99.90;;;;;;5105908;28;20032;-47
2023/01/01 10:22:21;;;;;;;6.40;2.30;;;15.60;99.90;;;;;;5090721;28;20036;-49
2023/01/01 10:25:19;;;;;;;10.93;2.67;;;15.80;99.90;;;;;;5094425;28;20071;-49
2023/01/01 10:27:57;;;;;;;8.60;2.30;;;16.00;99.90;;;;;;5111539;28;20031;-50
2023/01/01 10:30:24;;;;;;;5.95;2.85;;;16.00;99.90;;;;;;5102563;28;20028;-47
2023/01/01 10:32:52;;;;;;;10.90;2.42;;;16.10;99.90;;;;;;5090467;28;20027;-51
2023/01/01 10:35:21;;;;;;;8.30;3.17;;;16.00;99.90;;;;;;5092013;28;20116;-48
2023/01/01 10:37:48;;;;;;;4.40;2.80;;;15.80;99.90;;;;;;5085911;28;20028;-48
2023/01/01 10:40:21;;;;;;;10.93;2.95;;;15.70;99.90;;;;;;5074266;28;20021;-48
2023/01/01 10:42:50;;;;;;;6.72;2.10;;;15.60;99.90;;;;;;5089378;28;20230;-47
2023/01/01 10:45:28;;;;;;;4.53;2.17;;;15.60;99.90;;;;;;5091514;28;20020;-47
2023/01/01 10:48:35;;;;;;;11.20;2.75;;;15.50;99.90;;;;;;5091253;28;20564;-45
2023/01/01 10:51:23;;;;;;;9.88;2.30;;;15.40;99.90;;;;;;5087332;28;20040;-50
2023/01/01 10:53:51;;;;;;;6.30;2.13;;;15.30;99.90;;;;;;5089213;28;20025;-46
2023/01/01 10:56:18;;;;;;;5.72;2.97;;;15.30;99.90;;;;;;5093368;28;20024;-50
2023/01/01 10:58:54;;;;;;;9.13;2.70;;;15.30;99.90;;;;;;5095144;28;20016;-51
2023/01/01 11:01:23;;;;;;;6.78;2.30;;;15.20;99.90;;;;;;5094934;28;20031;-54
2023/01/01 11:04:01;;;;;;;5.18;2.28;;;15.20;99.90;;;;;;5094283;28;20028;-51
2023/01/01 11:06:39;;;;;;;6.45;2.47;;;15.20;99.90;;;;;;5086044;28;20024;-52
2023/01/01 11:09:19;;;;;;;4.65;1.92;;;15.20;99.90;;;;;;5094878;28;20028;-50
2023/01/01 11:11:47;;;;;;;8.15;2.40;;;15.20;99.90;;;;;;5057949;28;20752;-49
2023/01/01 11:14:33;;;;;;;9.60;2.50;;;15.20;99.90;;;;;;5093464;28;20035;-48
2023/01/01 11:16:59;;;;;;;7.30;2.78;;;15.30;99.90;;;;;;5094543;28;20018;-47
2023/01/01 11:19:31;;;;;;;7.28;2.55;;;15.30;99.90;;;;;;5094470;28;20468;-49
2023/01/01 11:21:57;;;;;;;6.97;2.22;;;15.30;99.90;;;;;;5084945;28;20028;-48
2023/01/01 11:24:26;;;;;;;6.45;2.75;;;15.40;99.90;;;;;;5075327;28;20047;-51
2023/01/01 11:27:10;;;;;;;4.88;2.42;;;15.50;99.90;;;;;;5094470;28;20016;-50
2023/01/01 11:29:35;;;;;;;12.68;2.97;;;15.50;99.90;;;;;;5094141;28;20024;-49
2023/01/01 11:32:05;;;;;;;9.48;2.72;;;15.50;99.90;;;;;;5092749;28;20051;-51
2023/01/01 11:34:37;;;;;;;13.77;2.80;;;15.50;99.90;;;;;;5093860;28;20101;-52
2023/01/01 11:37:25;;;;;;;8.55;3.03;;;15.50;99.90;;;;;;5075746;28;20467;-48
2023/01/01 11:39:53;;;;;;;18.27;4.18;;;15.50;99.90;;;;;;5074132;28;20020;-51
2023/01/01 11:42:31;;;;;;;12.45;2.47;;;15.50;99.90;;;;;;5090780;28;20032;-51
2023/01/01 11:45:01;;;;;;;7.78;2.35;;;15.60;99.90;;;;;;5094531;28;20028;-51
2023/01/01 11:47:36;;;;;;;9.20;2.50;;;15.50;99.90;;;;;;5094041;28;20543;-49
2023/01/01 11:50:19;;;;;;;6.10;3.35;;;15.50;99.90;;;;;;5093302;28;20036;-50
2023/01/01 11:52:47;;;;;;;7.38;2.38;;;15.50;99.90;;;;;;5092940;28;20024;-49
2023/01/01 11:55:37;;;;;;;7.07;2.95;;;15.50;99.90;;;;;;5093895;28;20031;-49
2023/01/01 11:58:28;;;;;;;5.68;2.42;;;15.50;99.90;;;;;;5073961;28;20029;-49
2023/01/01 12:00:56;;;;;;;9.63;2.75;;;15.50;99.90;;;;;;5073733;28;20495;-52
2023/01/01 12:03:34;;;;;;;7.20;2.47;;;15.50;99.90;;;;;;5072930;28;20070;-52
2023/01/01 12:06:05;;;;;;;11.98;2.72;;;15.60;99.90;;;;;;5088376;28;20526;-49
2023/01/01 12:08:43;;;;;;;9.85;2.85;;;15.50;99.90;;;;;;5089077;28;20039;-51
2023/01/01 12:11:26;;;;;;;9.43;2.50;;;15.50;99.90;;;;;;5102544;28;20519;-51
2023/01/01 12:14:24;;;;;;;7.28;2.65;;;15.50;99.90;;;;;;5092608;28;20028;-47
2023/01/01 12:16:54;;;;;;;12.55;2.80;;;15.60;99.90;;;;;;5093692;28;20401;-48
2023/01/01 12:19:22;;;;;;;6.05;2.60;;;15.60;99.90;;;;;;5102359;28;20080;-48
2023/01/01 12:21:52;;;;;;;6.07;2.45;;;15.50;99.90;;;;;;5082844;28;20039;-53
2023/01/01 12:24:18;;;;;;;9.98;2.58;;;15.50;99.90;;;;;;5092660;28;20050;-50
2023/01/01 12:27:13;;;;;;;10.98;2.75;;;15.50;99.90;;;;;;5075155;28;20157;-48
2023/01/01 12:29:46;;;;;;;5.32;2.40;;;15.50;99.90;;;;;;5075433;28;20364;-50
2023/01/01 12:32:49;;;;;;;7.85;2.65;;;15.40;99.90;;;;;;5073091;28;20024;-48
2023/01/01 12:35:26;;;;;;;8.77;2.70;;;15.40;99.90;;;;;;5038091;28;20042;-49
2023/01/01 12:38:13;;;;;;;9.57;2.70;;;15.40;99.90;;;;;;5093103;28;20020;-46
2023/01/01 12:40:46;;;;;;;8.73;3.30;;;15.30;99.90;;;;;;5092422;28;20530;-50
2023/01/01 12:43:25;;;;;;;12.27;2.47;;;15.30;99.90;;;;;;5090325;28;20063;-53
2023/01/01 12:46:00;;;;;;;10.73;2.85;;;15.40;99.90;;;;;;5073728;28;20039;-50
2023/01/01 12:48:46;;;;;;;13.65;2.65;;;15.40;99.90;;;;;;5091997;28;20423;-50
2023/01/01 12:51:40;;;;;;;11.43;2.80;;;15.40;99.90;;;;;;5074685;28;20116;-52
2023/01/01 12:54:29;;;;;;;10.27;3.45;;;15.40;99.90;;;;;;5092089;28;20036;-48
2023/01/01 12:57:00;;;;;;;6.47;2.25;;;15.40;99.90;;;;;;5092512;28;20081;-48
2023/01/01 12:59:32;;;;;;;12.40;2.90;;;15.30;99.90;;;;;;5093122;28;20103;-53
2023/01/01 13:02:01;;;;;;;9.32;2.70;;;15.30;99.90;;;;;;5091928;28;20482;-45